Time,TemperatureF,DewpointF,PressureIn,WindDirection,WindDirectionDegrees,WindSpeedMPH,WindSpeedGustMPH,Humidity,HourlyPrecipIn,Conditions,Clouds,dailyrainin,SolarRadiationWatts/m^2,SoftwareType,DateUTC
2013-02-07 00:02:00,60.0,58.0,-100.00,SSE,150,0.0,4.0,94,0.00,,,0.01,0.000000,,2013-02-07 06:02:00,
2013-02-07 00:11:00,60.0,58.0,-100.00,SSE,150,0.0,4.0,94,0.00,,,0.01,0.000000,,2013-02-07 06:11:00,
2013-02-07 00:22:00,60.0,58.0,-100.00,SSE,150,0.0,4.0,94,0.00,,,0.01,0.000000,,2013-02-07 06:22:00,
2013-02-07 00:52:00,59.0,58.0,-100.00,NE,41,2.0,4.0,97,0.02,,,0.03,0.000000,,2013-02-07 06:52:00,
2013-02-07 01:01:00,59.0,58.0,-100.00,NE,41,2.0,4.0,97,0.02,,,0.03,0.000000,,2013-02-07 07:01:00,
2013-02-07 01:11:00,59.0,58.0,-100.00,NE,41,2.0,4.0,97,0.02,,,0.03,0.000000,,2013-02-07 07:11:00,
2013-02-07 01:22:00,59.0,58.0,-100.00,NE,41,2.0,4.0,97,0.02,,,0.03,0.000000,,2013-02-07 07:22:00,
2013-02-07 01:52:00,60.0,59.0,-100.00,ENE,64,3.0,8.0,97,0.01,,,0.04,0.000000,,2013-02-07 07:52:00,
2013-02-07 02:01:00,60.0,59.0,-100.00,ENE,64,3.0,8.0,97,0.01,,,0.04,0.000000,,2013-02-07 08:01:00,
2013-02-07 02:11:00,60.0,59.0,-100.00,ENE,64,3.0,8.0,97,0.01,,,0.04,0.000000,,2013-02-07 08:11:00,
2013-02-07 02:21:00,60.0,59.0,-100.00,ENE,64,3.0,8.0,97,0.01,,,0.04,0.000000,,2013-02-07 08:21:00,
2013-02-07 02:52:00,61.0,60.0,-100.00,North,8,2.0,8.0,97,0.03,,,0.07,0.000000,,2013-02-07 08:52:00,
2013-02-07 03:02:00,61.0,60.0,-100.00,North,8,2.0,8.0,97,0.03,,,0.07,0.000000,,2013-02-07 09:02:00,
2013-02-07 03:11:00,61.0,60.0,-100.00,North,8,2.0,8.0,97,0.03,,,0.07,0.000000,,2013-02-07 09:11:00,
2013-02-07 03:21:00,61.0,60.0,-100.00,North,8,2.0,8.0,97,0.03,,,0.07,0.000000,,2013-02-07 09:21:00,
2013-02-07 03:52:00,61.0,60.0,-100.00,ESE,117,9.0,17.0,98,0.23,,,0.30,0.000000,,2013-02-07 09:52:00,
2013-02-07 04:02:00,61.0,60.0,-100.00,ESE,117,9.0,17.0,98,0.23,,,0.30,0.000000,,2013-02-07 10:02:00,
2013-02-07 04:11:00,61.0,60.0,-100.00,ESE,117,9.0,17.0,98,0.23,,,0.30,0.000000,,2013-02-07 10:11:00,
2013-02-07 04:22:00,61.0,60.0,-100.00,ESE,117,9.0,17.0,98,0.23,,,0.30,0.000000,,2013-02-07 10:22:00,
2013-02-07 04:52:00,62.0,61.0,-100.00,ESE,110,10.0,26.0,95,0.10,,,0.40,0.000000,,2013-02-07 10:52:00,
2013-02-07 05:01:00,62.0,61.0,-100.00,ESE,110,10.0,26.0,95,0.10,,,0.40,0.000000,,2013-02-07 11:01:00,
2013-02-07 05:11:00,62.0,61.0,-100.00,ESE,110,10.0,26.0,95,0.10,,,0.40,0.000000,,2013-02-07 11:11:00,
2013-02-07 05:22:00,62.0,61.0,-100.00,ESE,110,10.0,26.0,95,0.10,,,0.40,0.000000,,2013-02-07 11:22:00,
2013-02-07 05:53:00,62.0,61.0,-100.00,East,94,6.0,16.0,96,0.43,,,0.83,0.000000,,2013-02-07 11:53:00,
2013-02-07 06:02:00,62.0,61.0,-100.00,East,94,6.0,16.0,96,0.43,,,0.83,0.000000,,2013-02-07 12:02:00,
2013-02-07 06:11:00,62.0,61.0,-100.00,East,94,6.0,16.0,96,0.43,,,0.83,0.000000,,2013-02-07 12:11:00,
2013-02-07 06:22:00,62.0,61.0,-100.00,East,94,6.0,16.0,96,0.43,,,0.83,0.000000,,2013-02-07 12:22:00,
2013-02-07 06:53:00,62.0,61.0,-100.00,ENE,68,7.0,15.0,97,0.62,,,1.45,0.000000,,2013-02-07 12:53:00,
2013-02-07 07:03:00,62.0,61.0,-100.00,ENE,68,7.0,15.0,97,0.62,,,1.45,0.000000,,2013-02-07 13:03:00,
2013-02-07 07:12:00,62.0,61.0,-100.00,ENE,68,7.0,15.0,97,0.62,,,1.45,0.000000,,2013-02-07 13:12:00,
2013-02-07 07:22:00,62.0,61.0,-100.00,ENE,68,7.0,15.0,97,0.62,,,1.45,0.000000,,2013-02-07 13:22:00,
2013-02-07 07:52:00,60.0,59.0,-100.00,North,353,11.0,25.0,96,1.82,,,-99.99,0.000000,,2013-02-07 13:52:00,
2013-02-07 08:01:00,60.0,59.0,-100.00,North,353,11.0,25.0,96,1.82,,,-99.99,0.000000,,2013-02-07 14:01:00,
2013-02-07 08:11:00,60.0,59.0,-100.00,North,353,11.0,25.0,96,1.82,,,-99.99,0.000000,,2013-02-07 14:11:00,
2013-02-07 08:22:00,60.0,59.0,-100.00,North,353,11.0,25.0,96,1.82,,,-99.99,0.000000,,2013-02-07 14:22:00,
2013-02-07 08:52:00,61.0,59.0,-100.00,North,354,8.0,18.0,92,0.18,,,3.45,60.000000,,2013-02-07 14:52:00,
2013-02-07 09:02:00,61.0,59.0,-100.00,North,354,8.0,18.0,92,0.18,,,3.45,60.000000,,2013-02-07 15:02:00,
2013-02-07 09:11:00,61.0,59.0,-100.00,North,354,8.0,18.0,92,0.18,,,3.45,60.000000,,2013-02-07 15:11:00,
2013-02-07 09:22:00,61.0,59.0,-100.00,North,354,8.0,18.0,92,0.18,,,3.45,60.000000,,2013-02-07 15:22:00,
2013-02-07 09:52:00,66.0,59.0,-100.00,NNE,24,5.0,17.0,78,0.00,,,3.45,423.000000,,2013-02-07 15:52:00,
2013-02-07 10:01:00,66.0,59.0,-100.00,NNE,24,5.0,17.0,78,0.00,,,3.45,423.000000,,2013-02-07 16:01:00,
2013-02-07 10:11:00,66.0,59.0,-100.00,NNE,24,5.0,17.0,78,0.00,,,3.45,423.000000,,2013-02-07 16:11:00,
2013-02-07 10:21:00,66.0,59.0,-100.00,NNE,24,5.0,17.0,78,0.00,,,3.45,423.000000,,2013-02-07 16:21:00,
2013-02-07 10:52:00,70.0,57.0,-100.00,NE,50,6.0,16.0,63,0.00,,,3.45,654.000000,,2013-02-07 16:52:00,
2013-02-07 11:01:00,70.0,57.0,-100.00,NE,50,6.0,16.0,63,0.00,,,3.45,654.000000,,2013-02-07 17:01:00,
2013-02-07 11:11:00,70.0,57.0,-100.00,NE,50,6.0,16.0,63,0.00,,,3.45,654.000000,,2013-02-07 17:11:00,
2013-02-07 11:21:00,70.0,57.0,-100.00,NE,50,6.0,16.0,63,0.00,,,3.45,654.000000,,2013-02-07 17:21:00,
2013-02-07 11:52:00,74.0,57.0,-100.00,North,351,4.0,12.0,55,0.00,,,3.44,781.000000,,2013-02-07 17:52:00,
2013-02-07 12:01:00,74.0,57.0,-100.00,North,351,4.0,12.0,55,0.00,,,3.44,781.000000,,2013-02-07 18:01:00,
2013-02-07 12:11:00,74.0,57.0,-100.00,North,351,4.0,12.0,55,0.00,,,3.44,781.000000,,2013-02-07 18:11:00,
2013-02-07 12:23:00,74.0,57.0,-100.00,North,351,4.0,12.0,55,0.00,,,3.44,781.000000,,2013-02-07 18:23:00,
2013-02-07 12:52:00,76.0,57.0,-100.00,NNW,346,4.0,10.0,51,0.00,,,-99.99,834.000000,,2013-02-07 18:52:00,
2013-02-07 13:01:00,76.0,57.0,-100.00,NNW,346,4.0,10.0,51,0.00,,,-99.99,834.000000,,2013-02-07 19:01:00,
2013-02-07 13:11:00,76.0,57.0,-100.00,NNW,346,4.0,10.0,51,0.00,,,-99.99,834.000000,,2013-02-07 19:11:00,
2013-02-07 13:22:00,76.0,57.0,-100.00,NNW,346,4.0,10.0,51,0.00,,,-99.99,834.000000,,2013-02-07 19:22:00,
2013-02-07 13:52:00,77.0,55.0,-100.00,NW,306,5.0,13.0,46,0.00,,,3.44,820.000000,,2013-02-07 19:52:00,
2013-02-07 14:01:00,77.0,55.0,-100.00,NW,306,5.0,13.0,46,0.00,,,3.44,820.000000,,2013-02-07 20:01:00,
2013-02-07 14:11:00,77.0,55.0,-100.00,NW,306,5.0,13.0,46,0.00,,,3.44,820.000000,,2013-02-07 20:11:00,
2013-02-07 14:22:00,77.0,55.0,-100.00,NW,306,5.0,13.0,46,0.00,,,3.44,820.000000,,2013-02-07 20:22:00,
2013-02-07 14:52:00,77.0,59.0,-100.00,SW,236,6.0,14.0,54,0.00,,,3.44,662.000000,,2013-02-07 20:52:00,
2013-02-07 15:02:00,77.0,59.0,-100.00,SW,236,6.0,14.0,54,0.00,,,3.44,662.000000,,2013-02-07 21:02:00,
2013-02-07 15:11:00,77.0,59.0,-100.00,SW,236,6.0,14.0,54,0.00,,,3.44,662.000000,,2013-02-07 21:11:00,
2013-02-07 15:21:00,77.0,59.0,-100.00,SW,236,6.0,14.0,54,0.00,,,3.44,662.000000,,2013-02-07 21:21:00,
2013-02-07 15:52:00,75.0,59.0,-100.00,West,270,5.0,13.0,57,0.00,,,3.44,570.000000,,2013-02-07 21:52:00,
2013-02-07 16:02:00,75.0,59.0,-100.00,West,270,5.0,13.0,57,0.00,,,3.44,570.000000,,2013-02-07 22:02:00,
2013-02-07 16:11:00,75.0,59.0,-100.00,West,270,5.0,13.0,57,0.00,,,3.44,570.000000,,2013-02-07 22:11:00,
2013-02-07 16:21:00,75.0,59.0,-100.00,West,270,5.0,13.0,57,0.00,,,3.44,570.000000,,2013-02-07 22:21:00,
2013-02-07 16:52:00,74.0,60.0,-100.00,WSW,249,4.0,9.0,62,0.00,,,3.44,220.000000,,2013-02-07 22:52:00,
2013-02-07 17:01:00,74.0,60.0,-100.00,WSW,249,4.0,9.0,62,0.00,,,3.44,220.000000,,2013-02-07 23:01:00,
2013-02-07 17:11:00,74.0,60.0,-100.00,WSW,249,4.0,9.0,62,0.00,,,3.44,220.000000,,2013-02-07 23:11:00,
2013-02-07 17:21:00,74.0,60.0,-100.00,WSW,249,4.0,9.0,62,0.00,,,3.44,220.000000,,2013-02-07 23:21:00,
2013-02-07 17:52:00,70.0,56.0,-100.00,NW,322,5.0,11.0,62,0.00,,,3.44,112.000000,,2013-02-07 23:52:00,
2013-02-07 18:01:00,70.0,56.0,-100.00,NW,322,5.0,11.0,62,0.00,,,3.44,112.000000,,2013-02-08 00:01:00,
2013-02-07 18:11:00,70.0,56.0,-100.00,NW,322,5.0,11.0,62,0.00,,,3.44,112.000000,,2013-02-08 00:11:00,
2013-02-07 18:21:00,70.0,56.0,-100.00,NW,322,5.0,11.0,62,0.00,,,3.44,112.000000,,2013-02-08 00:21:00,
2013-02-07 19:52:00,61.0,56.0,-100.00,West,263,0.0,4.0,84,0.00,,,3.44,0.000000,,2013-02-08 01:52:00,
2013-02-07 20:01:00,61.0,56.0,-100.00,West,263,0.0,4.0,84,0.00,,,3.44,0.000000,,2013-02-08 02:01:00,
2013-02-07 20:11:00,61.0,56.0,-100.00,West,263,0.0,4.0,84,0.00,,,3.44,0.000000,,2013-02-08 02:11:00,
2013-02-07 20:21:00,61.0,56.0,-100.00,West,263,0.0,4.0,84,0.00,,,3.44,0.000000,,2013-02-08 02:21:00,
2013-02-07 20:52:00,57.0,56.0,-100.00,South,190,0.0,2.0,95,0.00,,,3.44,0.000000,,2013-02-08 02:52:00,
2013-02-07 21:02:00,57.0,56.0,-100.00,South,190,0.0,2.0,95,0.00,,,3.44,0.000000,,2013-02-08 03:02:00,
2013-02-07 21:12:00,57.0,56.0,-100.00,South,190,0.0,2.0,95,0.00,,,3.44,0.000000,,2013-02-08 03:12:00,
2013-02-07 21:22:00,57.0,56.0,-100.00,South,190,0.0,2.0,95,0.00,,,3.44,0.000000,,2013-02-08 03:22:00,
2013-02-07 21:52:00,55.0,54.0,-100.00,North,0,0.0,0.0,97,0.00,,,3.44,0.000000,,2013-02-08 03:52:00,
2013-02-07 22:02:00,55.0,54.0,-100.00,North,0,0.0,0.0,97,0.00,,,3.44,0.000000,,2013-02-08 04:02:00,
2013-02-07 22:11:00,55.0,54.0,-100.00,North,0,0.0,0.0,97,0.00,,,3.44,0.000000,,2013-02-08 04:11:00,
2013-02-07 22:21:00,55.0,54.0,-100.00,North,0,0.0,0.0,97,0.00,,,3.44,0.000000,,2013-02-08 04:21:00,
2013-02-07 22:52:00,54.0,53.0,-100.00,ENE,58,0.0,2.0,97,0.00,,,3.44,0.000000,,2013-02-08 04:52:00,
2013-02-07 23:02:00,54.0,53.0,-100.00,ENE,58,0.0,2.0,97,0.00,,,3.44,0.000000,,2013-02-08 05:02:00,
2013-02-07 23:11:00,54.0,53.0,-100.00,ENE,58,0.0,2.0,97,0.00,,,3.44,0.000000,,2013-02-08 05:11:00,
2013-02-07 23:22:00,54.0,53.0,-100.00,ENE,58,0.0,2.0,97,0.00,,,3.44,0.000000,,2013-02-08 05:22:00,
2013-02-07 23:52:00,53.0,52.0,-100.00,NNW,332,0.0,1.0,97,0.00,,,3.44,0.000000,,2013-02-08 05:52:00,